createdAt,value
2019-02-02T00:01:03.482Z,23.70
2019-02-02T00:03:34.583Z,23.43
2019-02-02T00:06:06.185Z,25.03
2019-02-02T00:08:37.639Z,26.63
2019-02-02T00:11:08.461Z,26.30
2019-02-02T00:13:39.718Z,24.43
2019-02-02T00:16:10.990Z,28.77
2019-02-02T00:18:41.943Z,23.97
2019-02-02T00:21:12.880Z,26.33
2019-02-02T00:23:43.823Z,25.13
2019-02-02T00:26:15.753Z,23.87
2019-02-02T00:28:46.631Z,24.60
2019-02-02T00:31:17.575Z,25.30
2019-02-02T00:33:49.758Z,24.40
2019-02-02T00:36:20.937Z,25.43
2019-02-02T00:38:52.010Z,25.20
2019-02-02T00:41:23.054Z,25.37
2019-02-02T00:43:53.994Z,26.30
2019-02-02T00:46:24.795Z,25.53
2019-02-02T00:48:56.350Z,25.90
2019-02-02T00:51:27.512Z,26.27
2019-02-02T00:53:58.616Z,26.93
2019-02-02T00:56:29.393Z,26.63
2019-02-02T00:59:00.552Z,25.53
2019-02-02T01:01:31.412Z,25.30
2019-02-02T01:04:02.223Z,25.73
2019-02-02T01:06:33.438Z,26.40
2019-02-02T01:09:09.752Z,25.27
2019-02-02T01:11:41.115Z,26.00
2019-02-02T01:14:12.093Z,25.63
2019-02-02T01:16:43.113Z,26.17
2019-02-02T01:19:14.065Z,25.07
2019-02-02T01:21:45.167Z,24.67
2019-02-02T01:24:16.710Z,25.37
2019-02-02T01:26:47.569Z,25.33
2019-02-02T01:29:18.746Z,25.83
2019-02-02T01:31:49.670Z,24.87
2019-02-02T01:34:20.533Z,25.77
2019-02-02T01:36:51.454Z,25.00
2019-02-02T01:39:22.256Z,24.93
2019-02-02T01:41:53.345Z,24.83
2019-02-02T01:44:24.197Z,24.83
2019-02-02T01:46:55.342Z,24.67
2019-02-02T01:49:26.203Z,24.77
2019-02-02T01:51:57.275Z,24.67
2019-02-02T01:54:28.500Z,25.73
2019-02-02T01:56:59.608Z,26.27
2019-02-02T01:59:30.752Z,25.47
2019-02-02T02:02:01.877Z,24.77
2019-02-02T02:04:32.940Z,25.47
2019-02-02T02:07:04.091Z,27.47
2019-02-02T02:09:35.097Z,26.23
2019-02-02T02:12:05.976Z,25.30
2019-02-02T02:14:37.149Z,24.97
2019-02-02T02:17:08.474Z,25.53
2019-02-02T02:19:40.301Z,25.20
2019-02-02T02:22:11.144Z,27.10
2019-02-02T02:24:42.284Z,25.70
2019-02-02T02:27:13.406Z,25.67
2019-02-02T02:29:44.260Z,25.60
2019-02-02T02:32:15.267Z,25.77
2019-02-02T02:34:46.350Z,25.43
2019-02-02T02:37:17.123Z,25.87
2019-02-02T02:39:47.914Z,24.93
2019-02-02T02:42:18.979Z,25.43
2019-02-02T02:44:49.801Z,24.33
2019-02-02T02:47:20.589Z,24.90
2019-02-02T02:49:51.619Z,24.90
2019-02-02T02:52:22.724Z,25.07
2019-02-02T02:54:53.814Z,24.27
2019-02-02T02:57:24.597Z,24.80
2019-02-02T02:59:55.875Z,24.23
2019-02-02T03:02:26.879Z,23.63
2019-02-02T03:04:57.666Z,25.07
2019-02-02T03:07:28.501Z,25.00
2019-02-02T03:09:59.285Z,24.87
2019-02-02T03:12:30.140Z,25.57
2019-02-02T03:15:01.063Z,25.03
2019-02-02T03:17:32.545Z,26.03
2019-02-02T03:20:03.719Z,24.90
2019-02-02T03:22:34.579Z,25.10
2019-02-02T03:25:07.325Z,25.53
2019-02-02T03:27:38.375Z,25.80
2019-02-02T03:30:11.855Z,25.50
2019-02-02T03:32:43.073Z,27.07
2019-02-02T03:35:15.151Z,26.00
2019-02-02T03:37:46.025Z,26.97
2019-02-02T03:40:19.207Z,27.40
2019-02-02T03:42:50.698Z,28.73
2019-02-02T03:45:23.362Z,28.63
2019-02-02T03:47:54.863Z,28.13
2019-02-02T03:50:25.933Z,28.73
2019-02-02T03:52:56.956Z,28.10
2019-02-02T03:55:28.136Z,26.97
2019-02-02T03:57:59.776Z,26.73
2019-02-02T04:00:30.849Z,26.17
2019-02-02T04:03:01.629Z,25.97
2019-02-02T04:05:32.412Z,26.27
2019-02-02T04:08:04.455Z,26.63
2019-02-02T04:10:35.419Z,27.87
2019-02-02T04:13:06.205Z,26.40
2019-02-02T04:15:37.164Z,26.83
2019-02-02T04:18:08.409Z,27.17
2019-02-02T04:20:39.661Z,26.70
2019-02-02T04:23:11.462Z,27.30
2019-02-02T04:25:42.766Z,26.60
2019-02-02T04:28:13.613Z,26.90
2019-02-02T04:30:44.850Z,26.57
2019-02-02T04:33:16.196Z,25.87
2019-02-02T04:35:47.303Z,24.87
2019-02-02T04:38:18.141Z,25.17
2019-02-02T04:40:49.054Z,26.23
2019-02-02T04:43:19.996Z,25.87
2019-02-02T04:45:50.779Z,27.00
2019-02-02T04:48:21.841Z,25.83
2019-02-02T04:50:52.947Z,26.80
2019-02-02T04:53:23.951Z,25.47
2019-02-02T04:55:54.735Z,26.47
2019-02-02T04:58:25.596Z,27.87
2019-02-02T05:00:56.636Z,27.60
2019-02-02T05:03:27.637Z,28.27
2019-02-02T05:05:59.142Z,27.20
2019-02-02T05:08:30.203Z,28.30
2019-02-02T05:11:01.321Z,26.77
2019-02-02T05:13:32.568Z,27.63
2019-02-02T05:16:03.609Z,27.13
2019-02-02T05:18:34.385Z,26.00
2019-02-02T05:21:05.317Z,27.13
2019-02-02T05:23:36.532Z,26.27
2019-02-02T05:26:07.496Z,26.07
2019-02-02T05:28:38.282Z,27.43
2019-02-02T05:31:09.350Z,27.87
2019-02-02T05:33:40.507Z,26.73
2019-02-02T05:36:11.585Z,25.83
2019-02-02T05:38:43.094Z,27.10
2019-02-02T05:41:14.354Z,25.00
2019-02-02T05:43:45.393Z,26.27
2019-02-02T05:46:16.425Z,26.27
2019-02-02T05:48:47.241Z,26.23
2019-02-02T05:51:18.159Z,26.20
2019-02-02T05:53:49.386Z,25.77
2019-02-02T05:56:20.543Z,24.93
2019-02-02T05:58:51.321Z,25.17
2019-02-02T06:01:22.130Z,25.07
2019-02-02T06:03:52.979Z,24.20
2019-02-02T06:06:24.147Z,24.10
2019-02-02T06:08:55.017Z,24.10
2019-02-02T06:11:25.939Z,23.03
2019-02-02T06:13:56.725Z,23.67
2019-02-02T06:16:27.799Z,23.97
2019-02-02T06:18:58.605Z,23.27
2019-02-02T06:21:29.694Z,24.10
2019-02-02T06:24:00.737Z,25.93
2019-02-02T06:26:31.575Z,24.97
2019-02-02T06:29:02.589Z,24.37
2019-02-02T06:31:33.426Z,26.23
2019-02-02T06:34:04.435Z,27.03
2019-02-02T06:36:36.491Z,27.80
2019-02-02T06:39:08.356Z,27.77
2019-02-02T06:41:39.410Z,26.63
2019-02-02T06:44:10.266Z,26.20
2019-02-02T06:46:43.678Z,26.43
2019-02-02T06:49:13.921Z,25.43
2019-02-02T06:51:44.952Z,26.73
2019-02-02T06:54:16.308Z,26.97
2019-02-02T06:56:47.482Z,26.23
2019-02-02T06:59:18.592Z,27.60
2019-02-02T07:01:49.397Z,25.77
2019-02-02T07:04:20.226Z,27.40
2019-02-02T07:06:51.199Z,28.47
2019-02-02T07:09:22.456Z,29.87
2019-02-02T07:11:53.600Z,31.43
2019-02-02T07:14:24.743Z,30.77
2019-02-02T07:16:55.512Z,29.60
2019-02-02T07:19:29.038Z,30.03
2019-02-02T07:21:59.001Z,28.60
2019-02-02T07:24:30.073Z,29.37
2019-02-02T07:27:00.927Z,28.97
2019-02-02T07:29:32.137Z,28.60
2019-02-02T07:32:03.249Z,29.40
2019-02-02T07:34:34.055Z,29.77
2019-02-02T07:37:05.128Z,29.80
2019-02-02T07:39:35.911Z,30.93
2019-02-02T07:42:06.678Z,29.17
2019-02-02T07:44:37.602Z,29.87
2019-02-02T07:47:09.312Z,28.83
2019-02-02T07:49:40.660Z,29.37
2019-02-02T07:52:11.698Z,29.03
2019-02-02T07:54:43.771Z,28.80
2019-02-02T07:57:14.918Z,29.80
2019-02-02T07:59:45.709Z,30.40
2019-02-02T08:02:16.774Z,29.93
2019-02-02T08:04:48.071Z,30.83
2019-02-02T08:07:19.393Z,29.30
2019-02-02T08:09:50.197Z,29.43
2019-02-02T08:12:21.372Z,29.17
2019-02-02T08:14:52.162Z,29.77
2019-02-02T08:17:23.762Z,31.03
2019-02-02T08:19:54.909Z,30.83
2019-02-02T08:22:26.053Z,33.13
2019-02-02T08:24:57.137Z,31.43
2019-02-02T08:27:27.990Z,34.00
2019-02-02T08:29:59.487Z,34.40
2019-02-02T08:32:30.251Z,34.53
2019-02-02T08:35:01.020Z,33.33
2019-02-02T08:37:32.131Z,32.47
2019-02-02T08:40:03.012Z,32.93
2019-02-02T08:42:34.098Z,33.80
2019-02-02T08:45:06.100Z,32.43
2019-02-02T08:47:37.125Z,30.20
2019-02-02T08:50:15.035Z,30.67
2019-02-02T08:52:46.026Z,30.33
2019-02-02T08:55:16.809Z,31.50
2019-02-02T08:57:47.819Z,31.87
2019-02-02T09:00:19.705Z,30.90
2019-02-02T09:02:50.944Z,30.13
2019-02-02T09:05:22.217Z,31.23
2019-02-02T09:07:53.157Z,30.33
2019-02-02T09:10:25.962Z,32.57
2019-02-02T09:12:57.371Z,31.63
2019-02-02T09:15:28.895Z,31.17
2019-02-02T09:18:00.018Z,31.30
2019-02-02T09:20:30.879Z,31.93
2019-02-02T09:23:06.420Z,32.37
2019-02-02T09:25:34.921Z,29.67
2019-02-02T09:28:05.986Z,28.93
2019-02-02T09:30:38.352Z,28.03
2019-02-02T09:33:09.569Z,29.63
2019-02-02T09:35:40.710Z,28.47
2019-02-02T09:38:12.327Z,28.53
2019-02-02T09:40:43.446Z,27.13
2019-02-02T09:43:14.216Z,29.63
2019-02-02T09:45:45.257Z,28.13
2019-02-02T09:48:16.739Z,27.97
2019-02-02T09:50:47.546Z,26.83
2019-02-02T09:53:18.558Z,27.90
2019-02-02T09:55:49.667Z,26.20
2019-02-02T09:58:20.552Z,26.60
2019-02-02T10:00:51.704Z,27.33
2019-02-02T10:03:22.469Z,26.47
2019-02-02T10:05:53.556Z,27.43
2019-02-02T10:08:24.353Z,26.50
2019-02-02T10:10:55.632Z,26.03
2019-02-02T10:13:26.431Z,26.77
2019-02-02T10:15:57.425Z,26.77
2019-02-02T10:18:28.575Z,26.63
2019-02-02T10:21:04.012Z,27.03
2019-02-02T10:23:32.561Z,25.53
2019-02-02T10:26:03.483Z,26.10
2019-02-02T10:28:34.243Z,25.43
2019-02-02T10:31:05.137Z,26.23
2019-02-02T10:33:35.883Z,25.77
2019-02-02T10:36:06.894Z,26.33
2019-02-02T10:38:37.749Z,27.13
2019-02-02T10:41:08.773Z,27.17
2019-02-02T10:43:39.601Z,26.10
2019-02-02T10:46:10.951Z,26.50
2019-02-02T10:48:42.015Z,26.10
2019-02-02T10:51:12.808Z,26.03
2019-02-02T10:53:43.558Z,26.77
2019-02-02T10:56:14.492Z,26.50
2019-02-02T10:58:45.493Z,26.73
2019-02-02T11:01:16.360Z,28.30
2019-02-02T11:03:47.129Z,27.13
2019-02-02T11:06:18.154Z,24.30
2019-02-02T11:08:48.943Z,24.63
2019-02-02T11:11:19.962Z,24.60
2019-02-02T11:13:50.798Z,24.97
2019-02-02T11:16:21.569Z,25.37
2019-02-02T11:18:53.268Z,26.60
2019-02-02T11:21:24.133Z,24.20
2019-02-02T11:23:54.888Z,23.50
2019-02-02T11:26:25.910Z,24.13
2019-02-02T11:28:57.082Z,23.93
2019-02-02T11:31:29.137Z,25.43
2019-02-02T11:34:00.055Z,24.57
2019-02-02T11:36:31.069Z,24.87
2019-02-02T11:39:01.819Z,24.23
2019-02-02T11:41:34.195Z,23.00
2019-02-02T11:44:05.298Z,24.63
2019-02-02T11:46:36.308Z,24.30
2019-02-02T11:49:07.685Z,25.20
2019-02-02T11:51:38.538Z,25.53
2019-02-02T11:54:09.668Z,24.60
2019-02-02T11:56:40.510Z,24.47
2019-02-02T11:59:11.645Z,24.53
2019-02-02T12:01:42.746Z,24.43
2019-02-02T12:04:13.864Z,24.43
2019-02-02T12:06:44.623Z,25.10
2019-02-02T12:09:15.396Z,23.70
2019-02-02T12:11:46.452Z,25.40
2019-02-02T12:14:17.492Z,24.53
2019-02-02T12:16:48.275Z,25.90
2019-02-02T12:19:19.190Z,27.17
2019-02-02T12:21:50.352Z,25.97
2019-02-02T12:24:21.197Z,28.17
2019-02-02T12:26:52.321Z,26.83
2019-02-02T12:29:23.332Z,27.00
2019-02-02T12:31:54.477Z,27.43
2019-02-02T12:34:25.319Z,26.90
2019-02-02T12:36:56.120Z,28.80
2019-02-02T12:39:27.160Z,28.90
2019-02-02T12:41:58.336Z,29.80
2019-02-02T12:44:29.414Z,28.67
2019-02-02T12:47:00.628Z,27.37
2019-02-02T12:49:31.477Z,29.80
2019-02-02T12:52:02.377Z,29.90
2019-02-02T12:54:33.344Z,30.50
2019-02-02T12:57:04.452Z,29.20
2019-02-02T12:59:37.992Z,31.83
2019-02-02T13:02:07.713Z,30.33
2019-02-02T13:04:38.560Z,30.07
2019-02-02T13:07:09.693Z,31.30
2019-02-02T13:09:40.650Z,29.07
2019-02-02T13:12:11.549Z,31.67
2019-02-02T13:14:42.612Z,34.70
2019-02-02T13:17:13.997Z,28.47
2019-02-02T13:19:44.754Z,28.90
2019-02-02T13:22:15.834Z,30.00
2019-02-02T13:24:46.891Z,29.50
2019-02-02T13:27:18.029Z,29.83
2019-02-02T13:29:52.042Z,31.73
2019-02-02T13:32:21.553Z,29.53
2019-02-02T13:34:53.152Z,29.90
2019-02-02T13:37:24.200Z,29.77
2019-02-02T13:39:55.242Z,29.03
2019-02-02T13:42:26.037Z,67.03
2019-02-02T13:44:56.907Z,43.37
2019-02-02T13:47:27.705Z,29.17
2019-02-02T13:49:58.727Z,66.70
2019-02-02T13:52:29.525Z,44.83
2019-02-02T13:55:00.471Z,31.90
2019-02-02T13:57:31.852Z,35.47
2019-02-02T14:00:02.996Z,32.23
2019-02-02T14:02:34.581Z,30.13
2019-02-02T14:05:07.410Z,30.37
2019-02-02T14:07:38.335Z,30.77
2019-02-02T14:10:11.462Z,29.33
2019-02-02T14:12:42.469Z,31.07
2019-02-02T14:15:13.429Z,29.97
2019-02-02T14:17:44.427Z,30.20
2019-02-02T14:20:15.806Z,29.63
2019-02-02T14:22:46.969Z,29.87
2019-02-02T14:25:18.085Z,29.07
2019-02-02T14:27:50.025Z,29.03
2019-02-02T14:30:22.773Z,29.70
2019-02-02T14:32:55.011Z,29.93
2019-02-02T14:35:27.544Z,28.83
2019-02-02T14:37:58.393Z,30.07
2019-02-02T14:40:30.124Z,30.37
2019-02-02T14:43:00.996Z,30.17
2019-02-02T14:45:33.034Z,32.30
2019-02-02T14:48:04.462Z,29.53
2019-02-02T14:50:35.593Z,29.87
2019-02-02T14:53:06.485Z,31.17
2019-02-02T14:55:37.265Z,30.83
2019-02-02T14:58:08.371Z,30.53
2019-02-02T15:00:39.509Z,31.57
2019-02-02T15:03:10.531Z,31.30
2019-02-02T15:05:43.320Z,31.47
2019-02-02T15:08:14.143Z,31.10
2019-02-02T15:10:44.901Z,31.87
2019-02-02T15:13:16.028Z,32.77
2019-02-02T15:15:46.862Z,32.47
2019-02-02T15:18:17.727Z,31.67
2019-02-02T15:20:48.557Z,32.73
2019-02-02T15:23:19.409Z,32.07
2019-02-02T15:25:50.438Z,30.60
2019-02-02T15:28:21.623Z,33.50
2019-02-02T15:30:52.676Z,31.80
2019-02-02T15:33:23.760Z,30.43
2019-02-02T15:35:54.852Z,34.23
2019-02-02T15:38:25.679Z,35.67
2019-02-02T15:40:59.282Z,32.30
2019-02-02T15:43:29.176Z,31.67
2019-02-02T15:45:59.937Z,31.53
2019-02-02T15:48:30.715Z,30.57
2019-02-02T15:51:01.788Z,31.17
2019-02-02T15:53:32.788Z,31.03
2019-02-02T15:56:03.775Z,29.53
2019-02-02T15:58:34.570Z,29.93
2019-02-02T16:01:05.519Z,30.40
2019-02-02T16:03:49.123Z,29.50
2019-02-02T16:06:09.967Z,29.97
2019-02-02T16:08:40.979Z,28.87
2019-02-02T16:11:12.932Z,30.00
2019-02-02T16:13:43.717Z,27.50
2019-02-02T16:18:49.864Z,30.67
2019-02-02T16:21:20.628Z,32.00
2019-02-02T16:23:51.721Z,30.07
2019-02-02T16:26:22.704Z,27.93
2019-02-02T16:28:53.557Z,27.70
2019-02-02T16:31:24.323Z,28.27
2019-02-02T16:34:02.218Z,27.47
2019-02-02T16:36:28.104Z,29.80
2019-02-02T16:38:58.982Z,28.03
2019-02-02T16:41:29.821Z,27.50
2019-02-02T16:44:01.097Z,27.20
2019-02-02T16:46:31.919Z,27.43
2019-02-02T16:49:02.951Z,27.23
2019-02-02T16:51:33.815Z,29.43
2019-02-02T16:54:04.692Z,27.83
2019-02-02T16:56:35.462Z,27.07
2019-02-02T16:59:06.641Z,27.73
2019-02-02T17:01:37.467Z,66.03
2019-02-02T17:04:15.342Z,30.77
2019-02-02T17:06:41.381Z,27.37
2019-02-02T17:09:14.028Z,28.77
2019-02-02T17:11:44.952Z,27.63
2019-02-02T17:14:17.819Z,28.77
2019-02-02T17:16:48.297Z,26.63
2019-02-02T17:19:19.306Z,25.80
2019-02-02T17:21:50.138Z,28.57
2019-02-02T17:24:21.153Z,28.30
2019-02-02T17:26:52.145Z,28.13
2019-02-02T17:29:23.006Z,29.27
2019-02-02T17:31:53.838Z,29.20
2019-02-02T17:34:27.272Z,30.73
2019-02-02T17:36:57.460Z,28.30
2019-02-02T17:39:28.583Z,26.73
2019-02-02T17:41:59.486Z,27.27
2019-02-02T17:44:30.502Z,26.37
2019-02-02T17:47:01.496Z,25.30
2019-02-02T17:49:32.389Z,26.10
2019-02-02T17:52:03.392Z,27.40
2019-02-02T17:54:34.174Z,26.33
2019-02-02T17:57:05.322Z,25.67
2019-02-02T17:59:36.336Z,25.43
2019-02-02T18:02:07.400Z,23.83
2019-02-02T18:04:41.223Z,24.77
2019-02-02T18:07:10.705Z,28.67
2019-02-02T18:09:41.498Z,26.77
2019-02-02T18:12:12.264Z,37.17
2019-02-02T18:14:43.276Z,21.33
2019-02-02T18:17:14.277Z,19.80
2019-02-02T18:19:45.561Z,20.43
2019-02-02T18:22:17.958Z,22.07
2019-02-02T18:24:48.992Z,27.50
2019-02-02T18:27:20.022Z,25.70
2019-02-02T18:29:50.877Z,19.53
2019-02-02T18:32:21.641Z,21.23
2019-02-02T18:34:52.737Z,20.53
2019-02-02T18:37:23.732Z,21.00
2019-02-02T18:39:55.098Z,19.80
2019-02-02T18:42:26.232Z,19.13
2019-02-02T18:44:57.245Z,18.67
2019-02-02T18:47:28.009Z,18.77
2019-02-02T18:49:59.212Z,18.50
2019-02-02T18:52:30.607Z,19.03
2019-02-02T18:55:01.489Z,18.73
2019-02-02T18:57:32.524Z,19.10
2019-02-02T19:00:06.091Z,18.37
2019-02-02T19:02:38.187Z,18.23
2019-02-02T19:05:09.603Z,18.87
2019-02-02T19:07:40.703Z,21.67
2019-02-02T19:10:14.782Z,21.50
2019-02-02T19:12:45.635Z,17.50
2019-02-02T19:15:17.153Z,19.30
2019-02-02T19:17:48.587Z,18.13
2019-02-02T19:20:20.587Z,18.80
2019-02-02T19:22:52.168Z,18.83
2019-02-02T19:25:23.676Z,18.33
2019-02-02T19:27:55.154Z,18.17
2019-02-02T19:30:28.136Z,18.80
2019-02-02T19:32:59.794Z,20.97
2019-02-02T19:35:31.050Z,22.70
2019-02-02T19:38:01.995Z,23.93
2019-02-02T19:40:32.860Z,23.33
2019-02-02T19:43:03.702Z,26.13
2019-02-02T19:45:34.500Z,23.67
2019-02-02T19:48:05.674Z,27.67
2019-02-02T19:50:36.452Z,25.43
2019-02-02T19:53:07.417Z,25.33
2019-02-02T19:55:38.203Z,23.53
2019-02-02T19:58:09.044Z,23.40
2019-02-02T20:00:39.917Z,21.63
2019-02-02T20:03:10.693Z,21.37
2019-02-02T20:05:41.551Z,26.87
2019-02-02T20:08:12.342Z,21.40
2019-02-02T20:10:43.459Z,21.17
2019-02-02T20:13:14.496Z,21.10
2019-02-02T20:15:46.225Z,19.90
2019-02-02T20:18:17.540Z,20.40
2019-02-02T20:20:48.602Z,21.80
2019-02-02T20:23:19.615Z,22.43
2019-02-02T20:25:50.455Z,22.67
2019-02-02T20:28:21.397Z,22.50
2019-02-02T20:30:52.404Z,22.93
2019-02-02T20:33:23.461Z,23.40
2019-02-02T20:35:54.629Z,23.40
2019-02-02T20:38:25.409Z,25.50
2019-02-02T20:40:56.253Z,23.07
2019-02-02T20:43:27.330Z,22.50
2019-02-02T20:45:58.593Z,22.70
2019-02-02T20:48:30.318Z,23.00
2019-02-02T20:51:02.017Z,22.00
2019-02-02T20:53:33.122Z,24.83
2019-02-02T20:56:08.052Z,23.67
2019-02-02T20:58:39.095Z,24.63
2019-02-02T21:01:10.181Z,26.90
2019-02-02T21:03:41.305Z,25.23
2019-02-02T21:06:12.091Z,23.20
2019-02-02T21:08:43.158Z,23.87
2019-02-02T21:11:14.181Z,24.00
2019-02-02T21:13:45.457Z,24.57
2019-02-02T21:16:16.424Z,25.97
2019-02-02T21:18:48.149Z,25.97
2019-02-02T21:21:19.009Z,28.10
2019-02-02T21:23:50.034Z,29.83
2019-02-02T21:26:21.072Z,30.80
2019-02-02T21:28:52.116Z,29.90
2019-02-02T21:31:22.982Z,30.20
2019-02-02T21:33:53.990Z,30.83
2019-02-02T21:36:24.749Z,28.03
2019-02-02T21:38:55.771Z,30.50
2019-02-02T21:41:26.541Z,31.50
2019-02-02T21:43:57.615Z,34.03
2019-02-02T21:46:28.387Z,34.60
2019-02-02T21:48:59.566Z,39.03
2019-02-02T21:51:30.381Z,37.67
2019-02-02T21:54:01.512Z,35.17
2019-02-02T21:56:32.605Z,33.87
2019-02-02T21:59:04.102Z,34.40
2019-02-02T22:01:35.325Z,40.57
2019-02-02T22:04:07.003Z,37.33
2019-02-02T22:06:37.996Z,35.67
2019-02-02T22:09:09.031Z,35.50
2019-02-02T22:11:40.384Z,34.60
2019-02-02T22:14:11.901Z,36.00
2019-02-02T22:16:43.140Z,35.77
2019-02-02T22:19:13.924Z,36.73
2019-02-02T22:21:44.952Z,40.00
2019-02-02T22:24:15.818Z,37.10
2019-02-02T22:26:47.156Z,37.30
2019-02-02T22:29:18.254Z,37.23
2019-02-02T22:31:49.028Z,36.30
2019-02-02T22:34:19.878Z,38.83
2019-02-02T22:36:51.071Z,34.93
2019-02-02T22:39:22.176Z,32.50
2019-02-02T22:41:52.938Z,35.47
2019-02-02T22:44:23.958Z,33.93
2019-02-02T22:46:55.129Z,34.33
2019-02-02T22:49:26.480Z,34.93
2019-02-02T22:51:59.899Z,34.80
2019-02-02T22:54:30.360Z,36.17
2019-02-02T22:57:01.205Z,32.73
2019-02-02T22:59:32.487Z,33.03
2019-02-02T23:02:09.694Z,34.63
2019-02-02T23:05:15.565Z,34.40
2019-02-02T23:08:44.738Z,36.50
2019-02-02T23:11:41.480Z,36.13
2019-02-02T23:14:48.254Z,34.23
2019-02-02T23:17:19.541Z,32.10
2019-02-02T23:19:50.606Z,32.23
2019-02-02T23:22:22.664Z,31.57
2019-02-02T23:24:53.448Z,31.90
2019-02-02T23:27:24.233Z,31.80
2019-02-02T23:29:55.266Z,32.90
2019-02-02T23:32:26.270Z,30.90
2019-02-02T23:34:57.609Z,32.30
2019-02-02T23:37:28.522Z,31.77
2019-02-02T23:40:00.352Z,31.30
2019-02-02T23:42:31.162Z,33.20
2019-02-02T23:45:02.198Z,31.13
2019-02-02T23:47:34.338Z,38.00
2019-02-02T23:50:05.757Z,37.10
2019-02-02T23:52:36.521Z,32.27
2019-02-02T23:55:07.874Z,30.67
2019-02-02T23:57:39.145Z,29.83
